Time;durP1;ratioP1;P1;durP2;ratioP2;P2;SDS_P1;SDS_P2;PMS_P1;PMS_P2;Temp;Humidity;BMP_temperature;BMP_pressure;BME280_temperature;BME280_humidity;BME280_pressure;Samples;Min_cycle;Max_cycle;Signal;HPM_P1;HPM_P2
2022/09/22 00:01:58;0.00;0.00;0.62;0.00;0.00;0.62;2.00;1.53;;;28.60;27.20;;;;;;2234048;62;20384;-65
2022/09/22 00:04:43;0.00;0.00;0.62;0.00;0.00;0.62;2.00;1.40;;;28.60;27.30;;;;;;2233748;62;20689;-64
2022/09/22 00:07:29;0.00;0.00;0.62;0.00;0.00;0.62;1.90;1.47;;;28.60;27.30;;;;;;2234061;62;20400;-64
2022/09/22 00:10:14;0.00;0.00;0.62;0.00;0.00;0.62;2.40;1.50;;;28.60;27.30;;;;;;2234103;62;20592;-64
2022/09/22 00:12:59;0.00;0.00;0.62;0.00;0.00;0.62;2.00;1.50;;;28.60;27.30;;;;;;2233518;62;20417;-63
2022/09/22 00:15:45;0.00;0.00;0.62;0.00;0.00;0.62;2.00;1.43;;;28.60;27.30;;;;;;2234363;62;20740;-65
2022/09/22 00:18:30;0.00;0.00;0.62;0.00;0.00;0.62;2.33;1.53;;;28.60;27.30;;;;;;2233413;62;20416;-64
2022/09/22 00:21:18;0.00;0.00;0.62;0.00;0.00;0.62;2.37;1.60;;;28.60;27.30;;;;;;2234231;62;20432;-64
2022/09/22 00:24:06;0.00;0.00;0.62;0.00;0.00;0.62;1.93;1.30;;;28.50;27.30;;;;;;2233624;62;20396;-64
2022/09/22 00:26:56;0.00;0.00;0.62;0.00;0.00;0.62;2.10;1.50;;;28.50;27.30;;;;;;2233474;62;20417;-64
2022/09/22 00:29:42;0.00;0.00;0.62;0.00;0.00;0.62;2.20;1.40;;;28.60;27.40;;;;;;2236652;62;20388;-64
2022/09/22 00:32:27;0.00;0.00;0.62;0.00;0.00;0.62;2.60;1.60;;;28.50;27.30;;;;;;2233876;62;20413;-64
2022/09/22 00:35:12;0.00;0.00;0.62;0.00;0.00;0.62;2.13;1.30;;;28.50;27.30;;;;;;2233438;62;20385;-64
2022/09/22 00:37:56;0.00;0.00;0.62;0.00;0.00;0.62;2.17;1.43;;;28.50;27.30;;;;;;2234388;62;20364;-64
2022/09/22 00:40:42;0.00;0.00;0.62;0.00;0.00;0.62;2.10;1.53;;;28.50;27.30;;;;;;2234079;62;20364;-64
2022/09/22 00:43:29;0.00;0.00;0.62;0.00;0.00;0.62;2.20;1.30;;;28.50;27.30;;;;;;2234215;62;20388;-64
2022/09/22 00:46:21;0.00;0.00;0.62;0.00;0.00;0.62;2.77;1.57;;;28.50;27.20;;;;;;2234007;62;20408;-65
2022/09/22 00:49:08;0.00;0.00;0.62;0.00;0.00;0.62;2.33;1.57;;;28.50;27.20;;;;;;2233481;62;20360;-64
2022/09/22 00:51:52;0.00;0.00;0.62;0.00;0.00;0.62;2.47;1.73;;;28.50;27.20;;;;;;2234138;62;20575;-64
2022/09/22 00:54:38;0.00;0.00;0.62;0.00;0.00;0.62;2.20;1.50;;;28.50;27.20;;;;;;2233728;62;20388;-65
2022/09/22 00:57:29;0.00;0.00;0.62;0.00;0.00;0.62;1.87;1.43;;;28.50;27.20;;;;;;2233590;62;20401;-65
2022/09/22 01:00:14;0.00;0.00;0.62;0.00;0.00;0.62;2.60;1.60;;;28.40;27.20;;;;;;2234176;62;20499;-65
2022/09/22 01:03:02;0.00;0.00;0.62;0.00;0.00;0.62;2.20;1.60;;;28.40;27.10;;;;;;2233578;62;20392;-66
2022/09/22 01:05:50;0.00;0.00;0.62;0.00;0.00;0.62;2.00;1.77;;;28.40;27.10;;;;;;2234254;62;20368;-65
2022/09/22 01:08:38;0.00;0.00;0.62;0.00;0.00;0.62;2.20;1.80;;;28.40;27.00;;;;;;2233907;62;20705;-66
2022/09/22 01:11:24;0.00;0.00;0.62;0.00;0.00;0.62;3.60;2.33;;;28.40;27.00;;;;;;2233446;62;20368;-65
2022/09/22 01:14:27;0.00;0.00;0.62;0.00;0.00;0.62;7.80;2.07;;;28.30;26.90;;;;;;2234135;62;20437;-66
2022/09/22 01:17:21;0.00;0.00;0.62;0.00;0.00;0.62;2.90;2.20;;;28.40;26.90;;;;;;2233933;62;20575;-65
2022/09/22 01:20:58;0.00;0.00;0.62;0.00;0.00;0.62;3.20;2.50;;;28.30;26.80;;;;;;2233758;62;20424;-65
2022/09/22 01:24:33;0.00;0.00;0.62;0.00;0.00;0.62;2.90;2.27;;;28.30;26.70;;;;;;2233898;62;20618;-66
2022/09/22 01:28:14;0.00;0.00;0.62;0.00;0.00;0.62;5.13;2.90;;;28.20;26.60;;;;;;2228435;62;20380;-65
2022/09/22 01:31:08;0.00;0.00;0.62;0.00;0.00;0.62;3.90;2.30;;;28.20;26.50;;;;;;2233737;62;20404;-65
2022/09/22 01:34:03;0.00;0.00;0.62;0.00;0.00;0.62;3.47;2.53;;;28.20;26.50;;;;;;2233358;62;20432;-66
2022/09/22 01:36:59;0.00;0.00;0.62;0.00;0.00;0.62;4.20;2.80;;;28.20;26.50;;;;;;2233726;62;20364;-66
2022/09/22 01:39:50;0.00;0.00;0.62;0.00;0.00;0.62;3.53;2.50;;;28.10;26.40;;;;;;2233372;62;20472;-66
2022/09/22 01:42:41;0.00;0.00;0.62;0.00;0.00;0.62;3.50;2.50;;;28.10;26.30;;;;;;2234021;62;20466;-66
2022/09/22 01:45:29;0.00;0.00;0.62;0.00;0.00;0.62;3.80;2.60;;;28.10;26.30;;;;;;2233912;62;20410;-64
2022/09/22 01:48:22;0.00;0.00;0.62;0.00;0.00;0.62;3.47;2.73;;;28.10;26.30;;;;;;2233363;62;20372;-64
2022/09/22 01:51:14;0.00;0.00;0.62;0.00;0.00;0.62;4.37;3.27;;;28.10;26.30;;;;;;2233962;62;20415;-65
2022/09/22 01:54:04;0.00;0.00;0.62;0.00;0.00;0.62;3.57;2.80;;;28.00;26.20;;;;;;2233692;62;20424;-65
2022/09/22 01:56:57;0.00;0.00;0.62;0.00;0.00;0.62;4.17;2.83;;;28.00;26.20;;;;;;2233696;62;20355;-65
2022/09/22 01:59:46;0.00;0.00;0.62;0.00;0.00;0.62;3.40;2.43;;;28.00;26.10;;;;;;2233971;62;20425;-66
2022/09/22 02:02:36;0.00;0.00;0.62;0.00;0.00;0.62;3.20;2.53;;;27.90;26.10;;;;;;2232970;62;20404;-66
2022/09/22 02:05:29;0.00;0.00;0.62;0.00;0.00;0.62;4.00;2.67;;;27.90;26.00;;;;;;2234031;62;20450;-66
2022/09/22 02:08:19;0.00;0.00;0.62;0.00;0.00;0.62;3.33;2.43;;;27.90;26.00;;;;;;2233676;62;20489;-65
2022/09/22 02:11:10;0.00;0.00;0.62;0.00;0.00;0.62;3.40;2.90;;;27.90;26.00;;;;;;2233454;62;20412;-66
2022/09/22 02:13:55;0.00;0.00;0.62;0.00;0.00;0.62;3.40;2.83;;;27.80;25.90;;;;;;2233912;62;20437;-65
2022/09/22 02:16:40;0.00;0.00;0.62;0.00;0.00;0.62;2.80;2.50;;;27.80;25.80;;;;;;2233694;62;20393;-66
2022/09/22 02:19:31;0.00;0.00;0.62;0.00;0.00;0.62;3.13;2.50;;;27.80;25.80;;;;;;2233523;62;20476;-66
2022/09/22 02:22:17;0.00;0.00;0.62;0.00;0.00;0.62;5.87;3.03;;;27.80;25.90;;;;;;2233635;62;20405;-64
2022/09/22 02:25:02;0.00;0.00;0.62;0.00;0.00;0.62;3.50;2.80;;;27.70;25.80;;;;;;2233380;62;20407;-65
2022/09/22 02:27:48;0.00;0.00;0.62;0.00;0.00;0.62;3.17;2.27;;;27.70;25.90;;;;;;2233845;62;20436;-65
2022/09/22 02:30:33;0.00;0.00;0.62;0.00;0.00;0.62;4.93;3.40;;;27.70;25.80;;;;;;2233870;62;20364;-65
2022/09/22 02:33:21;0.00;0.00;0.62;0.00;0.00;0.62;3.93;3.30;;;27.70;25.80;;;;;;2233333;62;20820;-64
2022/09/22 02:36:27;0.00;0.00;0.62;0.00;0.00;0.62;2.60;2.27;;;27.60;25.80;;;;;;2233775;62;20368;-65
2022/09/22 02:39:21;0.00;0.00;0.62;0.00;0.00;0.62;4.07;2.80;;;27.60;25.80;;;;;;2233585;62;20806;-65
2022/09/22 02:42:23;0.00;0.00;0.62;0.00;0.00;0.62;3.47;3.10;;;27.60;25.80;;;;;;2233768;62;20720;-65
2022/09/22 02:45:16;0.00;0.00;0.62;0.00;0.00;0.62;4.53;2.37;;;27.50;25.80;;;;;;2233771;62;20379;-65
2022/09/22 02:48:08;0.00;0.00;0.62;0.00;0.00;0.62;3.33;2.77;;;27.50;25.80;;;;;;2233449;62;20725;-65
2022/09/22 02:50:53;0.00;0.00;0.62;0.00;0.00;0.62;3.80;2.70;;;27.50;25.80;;;;;;2233800;62;20360;-64
2022/09/22 02:53:38;0.00;0.00;0.62;0.00;0.00;0.62;2.77;2.30;;;27.40;25.70;;;;;;2233433;62;20403;-65
2022/09/22 02:56:24;0.00;0.00;0.62;0.00;0.00;0.62;2.90;2.23;;;27.40;25.70;;;;;;2233945;62;20628;-65
2022/09/22 02:59:10;0.00;0.00;0.62;0.00;0.00;0.62;3.50;3.20;;;27.40;25.80;;;;;;2237789;62;20399;-65
2022/09/22 03:01:54;0.00;0.00;0.62;0.00;0.00;0.62;4.27;3.30;;;27.40;26.00;;;;;;2236949;62;20392;-64
2022/09/22 03:04:39;0.00;0.00;0.62;0.00;0.00;0.62;3.83;3.10;;;27.40;25.80;;;;;;2237961;62;20387;-65
2022/09/22 03:07:23;0.00;0.00;0.62;0.00;0.00;0.62;4.70;2.80;;;27.40;25.80;;;;;;2237492;62;20391;-64
2022/09/22 03:10:09;0.00;0.00;0.62;0.00;0.00;0.62;3.60;2.70;;;27.30;25.80;;;;;;2236914;62;20722;-65
2022/09/22 03:12:56;0.00;0.00;0.62;0.00;0.00;0.62;2.90;2.53;;;27.30;25.80;;;;;;2237687;62;20367;-65
2022/09/22 03:15:41;0.00;0.00;0.62;0.00;0.00;0.62;3.30;3.00;;;27.30;25.80;;;;;;2237355;62;20591;-64
2022/09/22 03:18:25;0.00;0.00;0.62;0.00;0.00;0.62;3.50;3.10;;;27.20;25.70;;;;;;2237058;62;20367;-64
2022/09/22 03:21:10;0.00;0.00;0.62;0.00;0.00;0.62;3.27;2.63;;;27.20;25.70;;;;;;2238482;62;20366;-64
2022/09/22 03:23:55;0.00;0.00;0.62;0.00;0.00;0.62;5.63;3.10;;;27.20;25.70;;;;;;2237155;62;20391;-65
2022/09/22 03:26:40;0.00;0.00;0.62;0.00;0.00;0.62;4.13;2.43;;;27.20;25.70;;;;;;2238499;62;20362;-65
2022/09/22 03:29:26;0.00;0.00;0.62;0.00;0.00;0.62;4.00;2.70;;;27.10;25.60;;;;;;2238245;62;20407;-65
2022/09/22 03:32:10;0.00;0.00;0.62;0.00;0.00;0.62;5.13;3.40;;;27.20;25.70;;;;;;2237543;62;20492;-65
2022/09/22 03:34:55;0.00;0.00;0.62;0.00;0.00;0.62;3.93;3.10;;;27.10;25.60;;;;;;2238410;62;20635;-65
2022/09/22 03:37:40;0.00;0.00;0.62;0.00;0.00;0.62;2.93;2.57;;;27.10;25.60;;;;;;2238166;62;20376;-65
2022/09/22 03:40:26;0.00;0.00;0.62;0.00;0.00;0.62;2.90;2.30;;;27.10;25.60;;;;;;2237829;62;20420;-65
2022/09/22 03:43:11;0.00;0.00;0.62;0.00;0.00;0.62;3.80;3.07;;;27.00;25.50;;;;;;2238335;62;20387;-65
2022/09/22 03:45:58;0.00;0.00;0.62;0.00;0.00;0.62;2.40;2.20;;;27.00;25.50;;;;;;2237575;62;20367;-65
2022/09/22 03:48:43;0.00;0.00;0.62;0.00;0.00;0.62;2.80;2.40;;;27.00;25.50;;;;;;2238451;62;20815;-64
2022/09/22 03:51:27;0.00;0.00;0.62;0.00;0.00;0.62;3.80;2.67;;;27.00;25.50;;;;;;2237984;62;20383;-64
2022/09/22 03:54:13;0.00;0.00;0.62;0.00;0.00;0.62;5.20;2.33;;;27.00;25.50;;;;;;2237445;62;20610;-64
2022/09/22 03:56:57;0.00;0.00;0.62;0.00;0.00;0.62;3.93;2.53;;;26.90;25.50;;;;;;2238362;62;20578;-64
2022/09/22 03:59:42;0.00;0.00;0.62;0.00;0.00;0.62;3.60;2.70;;;26.90;25.50;;;;;;2237976;62;20395;-64
2022/09/22 04:02:28;0.00;0.00;0.62;0.00;0.00;0.62;3.43;2.30;;;26.90;25.50;;;;;;2237693;62;20403;-65
2022/09/22 04:05:13;0.00;0.00;0.62;0.00;0.00;0.62;5.10;2.50;;;26.80;25.50;;;;;;2238310;62;20720;-65
2022/09/22 04:07:58;0.00;0.00;0.62;0.00;0.00;0.62;2.40;2.20;;;26.80;25.50;;;;;;2237814;62;20577;-65
2022/09/22 04:10:44;0.00;0.00;0.62;0.00;0.00;0.62;3.97;2.33;;;26.80;25.50;;;;;;2238371;62;20399;-65
2022/09/22 04:13:29;0.00;0.00;0.62;0.00;0.00;0.62;4.77;2.73;;;26.80;25.50;;;;;;2237897;62;20570;-65
2022/09/22 04:16:13;0.00;0.00;0.62;0.00;0.00;0.62;4.57;2.50;;;26.70;25.50;;;;;;2237502;62;20392;-64
2022/09/22 04:19:03;0.00;0.00;0.62;0.00;0.00;0.62;3.53;2.10;;;26.70;25.50;;;;;;2238141;62;20432;-64
2022/09/22 04:21:48;0.00;0.00;0.62;0.00;0.00;0.62;2.87;1.80;;;26.70;25.50;;;;;;2238131;62;20483;-65
2022/09/22 04:24:33;0.00;0.00;0.62;0.00;0.00;0.62;4.90;2.40;;;26.70;25.50;;;;;;2237599;62;20387;-65
2022/09/22 04:27:18;0.00;0.00;0.62;0.00;0.00;0.62;3.87;2.80;;;26.60;25.40;;;;;;2237886;62;20367;-65
2022/09/22 04:30:04;0.00;0.00;0.62;0.00;0.00;0.62;3.20;2.10;;;26.60;25.40;;;;;;2237732;62;20384;-64
2022/09/22 04:32:49;0.00;0.00;0.62;0.00;0.00;0.62;3.47;1.90;;;26.60;25.50;;;;;;2238020;62;20451;-65
2022/09/22 04:35:35;0.00;0.00;0.62;0.00;0.00;0.62;3.70;1.60;;;26.50;25.50;;;;;;2237901;62;20395;-65
2022/09/22 04:38:20;0.00;0.00;0.62;0.00;0.00;0.62;4.77;2.77;;;26.50;25.50;;;;;;2237513;62;20375;-65
2022/09/22 04:41:05;0.00;0.00;0.62;0.00;0.00;0.62;2.17;1.70;;;26.50;25.50;;;;;;2238034;62;20387;-64
2022/09/22 04:43:50;0.00;0.00;0.62;0.00;0.00;0.62;3.93;2.03;;;26.50;25.50;;;;;;2237942;62;20391;-65
2022/09/22 04:46:35;0.00;0.00;0.62;0.00;0.00;0.62;2.57;1.93;;;26.50;25.50;;;;;;2237677;62;20351;-65
2022/09/22 04:49:20;0.00;0.00;0.62;0.00;0.00;0.62;3.33;1.90;;;26.40;25.50;;;;;;2238081;62;20364;-65
2022/09/22 04:52:06;0.00;0.00;0.62;0.00;0.00;0.62;2.33;1.83;;;26.40;25.50;;;;;;2237791;62;20372;-66
2022/09/22 04:54:51;0.00;0.00;0.62;0.00;0.00;0.62;2.40;1.83;;;26.40;25.50;;;;;;2237998;62;20480;-66
2022/09/22 04:57:36;0.00;0.00;0.62;0.00;0.00;0.62;2.93;1.90;;;26.40;25.50;;;;;;2238076;62;20461;-63
2022/09/22 05:00:23;0.00;0.00;0.62;0.00;0.00;0.62;3.57;1.60;;;26.30;25.40;;;;;;2237517;62;20390;-65
2022/09/22 05:03:08;0.00;0.00;0.62;0.00;0.00;0.62;2.50;1.80;;;26.30;25.50;;;;;;2237995;62;20403;-63
2022/09/22 05:05:54;0.00;0.00;0.62;0.00;0.00;0.62;2.07;1.70;;;26.30;25.50;;;;;;2237933;62;20428;-65
2022/09/22 05:08:40;0.00;0.00;0.62;0.00;0.00;0.62;2.30;1.50;;;26.30;25.50;;;;;;2237632;62;20354;-64
2022/09/22 05:11:25;0.00;0.00;0.62;0.00;0.00;0.62;2.10;1.60;;;26.20;25.40;;;;;;2237996;62;20375;-65
2022/09/22 05:14:11;0.00;0.00;0.62;0.00;0.00;0.62;3.57;2.50;;;26.20;25.40;;;;;;2237773;62;20391;-65
2022/09/22 05:16:56;0.00;0.00;0.62;0.00;0.00;0.62;4.70;1.93;;;26.20;26.00;;;;;;2234589;62;20423;-64
2022/09/22 05:19:40;0.00;0.00;0.62;0.00;0.00;0.62;3.43;1.77;;;26.20;25.40;;;;;;2237960;62;20444;-65
2022/09/22 05:22:25;0.00;0.00;0.62;0.00;0.00;0.62;3.10;1.70;;;26.20;25.40;;;;;;2237479;62;20372;-65
2022/09/22 05:25:14;0.00;0.00;0.62;0.00;0.00;0.62;2.50;1.47;;;26.20;25.40;;;;;;2237657;62;20407;-66
2022/09/22 05:28:00;0.00;0.00;0.62;0.00;0.00;0.62;2.50;1.47;;;26.10;25.40;;;;;;2237972;62;20371;-65
2022/09/22 05:30:48;0.00;0.00;0.62;0.00;0.00;0.62;2.50;1.70;;;26.10;25.40;;;;;;2237018;62;20508;-64
2022/09/22 05:33:32;0.00;0.00;0.62;0.00;0.00;0.62;2.20;1.37;;;26.10;25.40;;;;;;2238026;62;20467;-65
2022/09/22 05:36:17;0.00;0.00;0.62;0.00;0.00;0.62;2.83;1.90;;;26.10;25.50;;;;;;2237860;62;20387;-64
2022/09/22 05:39:01;0.00;0.00;0.62;0.00;0.00;0.62;2.40;1.50;;;26.00;25.40;;;;;;2237603;62;20390;-64
2022/09/22 05:41:50;0.00;0.00;0.62;0.00;0.00;0.62;2.93;1.83;;;26.00;25.40;;;;;;2237789;62;20582;-64
2022/09/22 05:44:35;0.00;0.00;0.62;0.00;0.00;0.62;2.23;1.63;;;26.00;25.40;;;;;;2237408;62;20395;-65
2022/09/22 05:47:20;0.00;0.00;0.62;0.00;0.00;0.62;3.17;1.87;;;26.00;25.40;;;;;;2238009;62;20356;-65
2022/09/22 05:50:07;0.00;0.00;0.62;0.00;0.00;0.62;4.30;1.47;;;26.00;25.90;;;;;;2237421;62;20387;-64
2022/09/22 05:53:04;0.00;0.00;0.62;0.00;0.00;0.62;2.50;1.50;;;25.90;25.40;;;;;;2237174;62;20403;-63
2022/09/22 05:55:49;0.00;0.00;0.62;0.00;0.00;0.62;2.50;1.33;;;25.90;26.00;;;;;;2238043;62;20366;-65
2022/09/22 05:58:35;0.00;0.00;0.62;0.00;0.00;0.62;2.07;1.57;;;25.90;25.40;;;;;;2237251;62;20367;-64
2022/09/22 06:01:19;0.00;0.00;0.62;0.00;0.00;0.62;3.20;1.67;;;25.80;25.40;;;;;;2237031;62;20367;-64
2022/09/22 06:04:04;0.00;0.00;0.62;0.00;0.00;0.62;9.20;2.00;;;25.80;25.40;;;;;;2237752;62;20755;-63
2022/09/22 06:06:49;0.00;0.00;0.62;0.00;0.00;0.62;2.23;1.60;;;25.80;25.40;;;;;;2237478;62;20371;-66
2022/09/22 06:09:33;0.00;0.00;0.62;0.00;0.00;0.62;3.30;1.73;;;25.80;25.50;;;;;;2237872;62;20436;-65
2022/09/22 06:12:18;0.00;0.00;0.62;0.00;0.00;0.62;3.10;2.53;;;25.80;25.50;;;;;;2237516;62;20363;-65
2022/09/22 06:15:06;0.00;0.00;0.62;0.00;0.00;0.62;4.27;2.17;;;25.80;25.50;;;;;;2237490;62;20747;-65
2022/09/22 06:17:51;0.00;0.00;0.62;0.00;0.00;0.62;2.80;2.17;;;25.70;25.40;;;;;;2237729;62;20439;-64
2022/09/22 06:20:36;0.00;0.00;0.62;0.00;0.00;0.62;3.23;1.93;;;25.70;25.40;;;;;;2237573;62;20395;-66
2022/09/22 06:23:22;0.00;0.00;0.62;0.00;0.00;0.62;2.10;1.77;;;25.70;25.40;;;;;;2237487;62;20383;-65
2022/09/22 06:26:06;0.00;0.00;0.62;0.00;0.00;0.62;3.47;2.37;;;25.70;25.50;;;;;;2237881;62;20355;-64
2022/09/22 06:28:51;0.00;0.00;0.62;0.00;0.00;0.62;4.10;2.37;;;25.70;25.50;;;;;;2237438;62;20661;-63
2022/09/22 06:31:38;0.00;0.00;0.62;0.00;0.00;0.62;3.37;2.03;;;25.70;25.50;;;;;;2237704;62;20387;-63
2022/09/22 06:34:25;0.00;0.00;0.62;0.00;0.00;0.62;2.50;2.23;;;25.60;25.50;;;;;;2237453;62;20390;-64
2022/09/22 06:37:11;0.00;0.00;0.62;0.00;0.00;0.62;3.10;1.80;;;25.60;25.50;;;;;;2237397;62;20398;-63
2022/09/22 06:39:55;0.00;0.00;0.62;0.00;0.00;0.62;6.50;2.30;;;25.60;25.50;;;;;;2237705;62;20762;-63
2022/09/22 06:42:41;0.00;0.00;0.62;0.00;0.00;0.62;2.80;1.70;;;25.60;25.50;;;;;;2237411;62;20439;-65
2022/09/22 06:45:26;0.00;0.00;0.62;0.00;0.00;0.62;2.33;1.70;;;25.60;25.50;;;;;;2237620;62;20363;-63
2022/09/22 06:48:13;0.00;0.00;0.62;0.00;0.00;0.62;4.23;2.00;;;25.60;25.50;;;;;;2237683;62;20723;-65
2022/09/22 06:50:57;0.00;0.00;0.62;0.00;0.00;0.62;3.10;1.90;;;25.50;25.50;;;;;;2237225;62;20360;-64
2022/09/22 06:53:43;0.00;0.00;0.62;0.00;0.00;0.62;2.70;1.80;;;25.50;25.50;;;;;;2238238;62;20443;-64
2022/09/22 06:56:29;0.00;0.00;0.62;0.00;0.00;0.62;3.80;2.50;;;25.50;25.40;;;;;;2238120;62;20416;-65
2022/09/22 06:59:15;0.00;0.00;0.62;0.00;0.00;0.62;2.97;2.23;;;25.50;25.40;;;;;;2238021;62;20396;-65
2022/09/22 07:02:03;0.00;0.00;0.62;0.00;0.00;0.62;2.63;2.27;;;25.50;25.40;;;;;;2238225;62;20367;-64
2022/09/22 07:04:51;0.00;0.00;0.62;0.00;0.00;0.62;4.93;2.67;;;25.50;25.50;;;;;;2237888;62;20391;-62
2022/09/22 07:07:35;0.00;0.00;0.62;0.00;0.00;0.62;3.50;2.13;;;25.40;25.50;;;;;;2237760;62;20363;-61
2022/09/22 07:10:20;0.00;0.00;0.62;0.00;0.00;0.62;2.70;1.70;;;25.40;25.50;;;;;;2238310;62;20367;-63
2022/09/22 07:13:05;0.00;0.00;0.62;0.00;0.00;0.62;4.90;2.57;;;25.40;26.10;;;;;;2237768;62;20666;-64
2022/09/22 07:15:49;0.00;0.00;0.62;0.00;0.00;0.62;3.30;2.03;;;25.40;25.60;;;;;;2238149;62;20367;-68
2022/09/22 07:18:41;0.00;0.00;0.62;0.00;0.00;0.62;2.60;1.90;;;25.40;25.60;;;;;;2264578;58;20398;-66
2022/09/22 07:21:34;0.00;0.00;0.62;0.00;0.00;0.62;3.33;2.23;;;25.40;25.70;;;;;;2237627;62;20669;-65
2022/09/22 07:24:18;0.00;0.00;0.62;0.00;0.00;0.62;2.83;1.77;;;25.40;25.70;;;;;;2238202;62;20395;-63
2022/09/22 07:27:05;0.00;0.00;0.62;0.00;0.00;0.62;2.53;1.77;;;25.40;25.70;;;;;;2241402;58;20419;-63
2022/09/22 07:29:51;0.00;0.00;0.62;0.00;0.00;0.62;4.70;2.17;;;25.40;25.70;;;;;;2237590;62;20371;-65
2022/09/22 07:32:35;0.00;0.00;0.62;0.00;0.00;0.62;2.87;2.20;;;25.40;25.70;;;;;;2237118;62;20625;-63
2022/09/22 07:35:20;0.00;0.00;0.62;0.00;0.00;0.62;2.70;1.80;;;25.40;26.30;;;;;;2237251;62;20379;-61
2022/09/22 07:38:06;0.00;0.00;0.62;0.00;0.00;0.62;2.40;1.70;;;25.40;25.70;;;;;;2238123;62;20403;-64
2022/09/22 07:40:52;0.00;0.00;0.62;0.00;0.00;0.62;2.97;1.90;;;25.40;25.80;;;;;;2237400;62;20494;-65
2022/09/22 07:43:37;0.00;0.00;0.62;0.00;0.00;0.62;2.53;1.70;;;25.40;25.80;;;;;;2237127;62;20439;-62
2022/09/22 07:46:22;0.00;0.00;0.62;0.00;0.00;0.62;1.80;1.30;;;25.40;25.80;;;;;;2238137;62;20375;-64
2022/09/22 07:49:07;0.00;0.00;0.62;0.00;0.00;0.62;2.97;1.70;;;25.40;25.70;;;;;;2238136;62;20367;-64
2022/09/22 07:51:53;0.00;0.00;0.62;0.00;0.00;0.62;2.10;1.83;;;25.40;25.80;;;;;;2237654;62;20376;-63
2022/09/22 07:54:40;0.00;0.00;0.62;0.00;0.00;0.62;3.10;1.73;;;25.40;25.80;;;;;;2238192;62;20751;-62
2022/09/22 07:57:25;0.00;0.00;0.62;0.00;0.00;0.62;1.80;1.37;;;25.40;25.80;;;;;;2238076;62;20488;-64
2022/09/22 08:00:12;0.00;0.00;0.62;0.00;0.00;0.62;2.17;1.30;;;25.40;25.90;;;;;;2238218;62;20423;-63
2022/09/22 08:02:57;0.00;0.00;0.62;0.00;0.00;0.62;3.40;1.90;;;25.40;25.90;;;;;;2237965;62;20407;-63
2022/09/22 08:05:42;0.00;0.00;0.62;0.00;0.00;0.62;2.10;1.60;;;25.40;25.90;;;;;;2237892;62;20372;-64
2022/09/22 08:08:27;0.00;0.00;0.62;0.00;0.00;0.62;2.90;1.63;;;25.40;25.90;;;;;;2238185;62;20739;-62
2022/09/22 08:11:17;0.00;0.00;0.62;0.00;0.00;0.62;2.77;1.40;;;25.40;25.90;;;;;;2235837;62;20728;-61
2022/09/22 08:14:05;0.00;0.00;0.62;0.00;0.00;0.62;4.23;1.70;;;25.40;26.00;;;;;;2233823;62;20437;-61
2022/09/22 08:16:52;0.00;0.00;0.62;0.00;0.00;0.62;3.63;1.80;;;25.40;25.90;;;;;;2233877;62;20890;-63
2022/09/22 08:19:36;0.00;0.00;0.62;0.00;0.00;0.62;3.00;1.90;;;25.40;25.90;;;;;;2233260;62;20415;-62
2022/09/22 08:22:21;0.00;0.00;0.62;0.00;0.00;0.62;3.10;1.67;;;25.40;25.90;;;;;;2233787;62;20613;-60
2022/09/22 08:25:11;0.00;0.00;0.62;0.00;0.00;0.62;3.67;1.80;;;25.40;25.90;;;;;;2234257;62;20833;-65
2022/09/22 08:28:00;0.00;0.00;0.62;0.00;0.00;0.62;3.13;1.70;;;25.40;25.90;;;;;;2237294;62;20406;-63
2022/09/22 08:30:45;0.00;0.00;0.62;0.00;0.00;0.62;2.10;1.20;;;25.40;25.90;;;;;;2237717;62;20388;-64
2022/09/22 08:33:31;0.00;0.00;0.62;0.00;0.00;0.62;3.17;1.50;;;25.40;26.00;;;;;;2498610;46;20713;-64
2022/09/22 08:36:15;0.00;0.00;0.62;0.00;0.00;0.62;3.30;1.47;;;25.40;26.00;;;;;;2237170;62;20417;-64
2022/09/22 08:39:01;0.00;0.00;0.62;0.00;0.00;0.62;2.80;1.80;;;25.40;26.00;;;;;;2237630;62;20391;-64
2022/09/22 08:42:06;0.00;0.00;0.62;0.00;0.00;0.62;2.00;1.40;;;25.40;26.10;;;;;;2237358;62;20453;-63
2022/09/22 08:44:59;0.00;0.00;0.62;0.00;0.00;0.62;2.87;1.33;;;25.50;26.20;;;;;;2237533;62;20379;-63
2022/09/22 08:54:07;0.00;0.00;0.62;0.00;0.00;0.62;2.80;1.53;;;25.60;26.30;;;;;;2237541;62;20608;-64
2022/09/22 08:57:12;0.00;0.00;0.62;0.00;0.00;0.62;1.83;1.20;;;25.60;26.30;;;;;;2237054;62;20419;-62
2022/09/22 09:00:05;0.00;0.00;0.62;0.00;0.00;0.62;2.33;1.33;;;25.60;26.30;;;;;;2237525;62;20395;-62
2022/09/22 09:03:08;0.00;0.00;0.62;0.00;0.00;0.62;2.00;1.30;;;25.70;26.40;;;;;;2237197;62;20709;-62
2022/09/22 09:06:06;0.00;0.00;0.62;0.00;0.00;0.62;1.93;1.30;;;25.70;26.40;;;;;;2237128;62;20516;-62
2022/09/22 09:09:25;0.00;0.00;0.62;0.00;0.00;0.62;1.70;1.20;;;25.70;26.40;;;;;;2237599;62;20453;-62
2022/09/22 09:12:33;0.00;0.00;0.62;0.00;0.00;0.62;1.83;1.10;;;25.70;26.40;;;;;;2236729;62;20414;-61
2022/09/22 09:15:44;0.00;0.00;0.62;0.00;0.00;0.62;2.40;1.30;;;25.70;26.40;;;;;;2237381;62;20408;-61
2022/09/22 09:18:33;0.00;0.00;0.62;0.00;0.00;0.62;2.10;1.20;;;25.80;26.50;;;;;;2237253;62;20375;-62
2022/09/22 09:21:20;0.00;0.00;0.62;0.00;0.00;0.62;2.80;1.17;;;25.80;26.40;;;;;;2236978;62;20424;-61
2022/09/22 09:24:28;0.00;0.00;0.62;0.00;0.00;0.62;1.70;1.10;;;25.80;26.50;;;;;;2237357;62;20656;-61
2022/09/22 09:27:20;0.00;0.00;0.62;0.00;0.00;0.62;1.70;1.00;;;25.90;26.50;;;;;;2236638;62;20359;-62
2022/09/22 09:30:19;0.00;0.00;0.62;0.00;0.00;0.62;2.10;1.10;;;25.90;26.50;;;;;;2237558;62;20362;-62
2022/09/22 09:33:17;0.00;0.00;0.62;0.00;0.00;0.62;2.00;1.13;;;25.90;26.50;;;;;;2236995;62;20382;-62
2022/09/22 09:36:02;0.00;0.00;0.62;0.00;0.00;0.62;2.03;1.23;;;26.00;26.50;;;;;;2237068;62;20497;-62
2022/09/22 09:38:51;0.00;0.00;0.62;0.00;0.00;0.62;2.53;1.10;;;26.00;26.50;;;;;;2237643;62;20415;-62
2022/09/22 09:41:36;0.00;0.00;0.62;0.00;0.00;0.62;2.20;1.20;;;26.00;26.50;;;;;;2236877;62;20382;-60
2022/09/22 09:44:26;0.00;0.00;0.62;0.00;0.00;0.62;1.60;1.10;;;26.00;26.50;;;;;;2237501;62;20502;-63
2022/09/22 09:47:20;0.00;0.00;0.62;0.00;0.00;0.62;1.70;0.93;;;26.10;26.60;;;;;;2237198;62;20363;-60
2022/09/22 09:50:10;0.00;0.00;0.62;0.00;0.00;0.62;1.40;0.90;;;26.10;26.60;;;;;;2236984;62;20367;-62
2022/09/22 09:52:57;0.00;0.00;0.62;0.00;0.00;0.62;1.90;1.10;;;26.10;27.10;;;;;;2237381;62;20372;-62
2022/09/22 09:55:41;0.00;0.00;0.62;0.00;0.00;0.62;2.37;1.20;;;26.10;26.60;;;;;;2237220;62;20368;-62
2022/09/22 10:01:30;0.00;0.00;0.62;0.00;0.00;0.62;1.90;1.13;;;26.20;26.60;;;;;;2236947;62;20770;-60
2022/09/22 10:04:27;0.00;0.00;0.62;0.00;0.00;0.62;2.00;1.27;;;26.20;27.20;;;;;;2236921;62;20386;-62
2022/09/22 10:07:17;0.00;0.00;0.62;0.00;0.00;0.62;1.93;1.20;;;26.30;26.60;;;;;;2237526;62;20430;-61
2022/09/22 10:10:31;0.00;0.00;0.62;0.00;0.00;0.62;2.23;0.97;;;26.30;26.70;;;;;;2237354;62;20372;-61
2022/09/22 10:13:29;0.00;0.00;0.62;0.00;0.00;0.62;2.60;1.40;;;26.30;26.60;;;;;;2610046;46;20456;-61
2022/09/22 10:16:24;0.00;0.00;0.62;0.00;0.00;0.62;2.20;1.20;;;26.40;26.70;;;;;;2237113;62;20662;-60
2022/09/22 10:19:28;0.00;0.00;0.62;0.00;0.00;0.62;1.50;1.00;;;26.40;26.70;;;;;;2236935;62;20459;-62
2022/09/22 10:22:26;0.00;0.00;0.62;0.00;0.00;0.62;1.70;1.00;;;26.40;26.70;;;;;;2237254;62;20577;-60
2022/09/22 10:25:24;0.00;0.00;0.62;0.00;0.00;0.62;1.90;1.10;;;26.50;26.70;;;;;;2237234;62;20591;-62
2022/09/22 10:28:16;0.00;0.00;0.62;0.00;0.00;0.62;1.90;1.20;;;26.50;26.70;;;;;;2238433;62;20799;-62
2022/09/22 10:31:02;0.00;0.00;0.62;0.00;0.00;0.62;1.90;1.30;;;26.50;26.70;;;;;;2238205;62;20358;-62
2022/09/22 10:33:56;0.00;0.00;0.62;0.00;0.00;0.62;2.17;1.10;;;26.60;26.80;;;;;;2238203;62;20535;-61
2022/09/22 10:36:45;0.00;0.00;0.62;0.00;0.00;0.62;1.50;0.90;;;26.60;26.80;;;;;;2238731;62;20403;-62
2022/09/22 10:39:45;0.00;0.00;0.62;0.00;0.00;0.62;1.67;0.90;;;26.60;26.70;;;;;;2238412;62;20477;-61
2022/09/22 10:42:34;0.00;0.00;0.62;0.00;0.00;0.62;1.40;0.90;;;26.70;26.80;;;;;;2238113;62;20379;-62
2022/09/22 10:45:22;0.00;0.00;0.62;0.00;0.00;0.62;1.57;0.93;;;26.70;26.70;;;;;;2238597;62;20402;-62
2022/09/22 10:48:16;0.00;0.00;0.62;0.00;0.00;0.62;1.60;1.00;;;26.80;26.80;;;;;;2238373;62;20680;-61
2022/09/22 10:51:11;0.00;0.00;0.62;0.00;0.00;0.62;1.60;1.00;;;26.80;26.80;;;;;;2238542;62;20366;-62
2022/09/22 10:54:32;0.00;0.00;0.62;0.00;0.00;0.62;1.83;0.90;;;26.80;26.80;;;;;;2238154;62;20779;-61
2022/09/22 10:57:36;0.00;0.00;0.62;0.00;0.00;0.62;1.63;0.93;;;26.90;26.80;;;;;;2238291;62;20677;-62
2022/09/22 11:00:23;0.00;0.00;0.62;0.00;0.00;0.62;1.43;0.90;;;26.90;26.80;;;;;;2238193;62;20751;-62
2022/09/22 11:03:53;0.00;0.00;0.62;0.00;0.00;0.62;1.60;1.00;;;27.00;26.80;;;;;;2238066;62;20531;-62
2022/09/22 11:12:15;0.00;0.00;0.62;0.00;0.00;0.62;1.40;0.80;;;27.00;26.80;;;;;;2238025;62;20774;-62
2022/09/22 11:13:46;0.00;0.00;0.62;0.00;0.00;0.62;1.70;1.00;;;27.10;26.80;;;;;;2603870;46;20447;-61
2022/09/22 11:16:45;0.00;0.00;0.62;0.00;0.00;0.62;1.87;1.10;;;27.10;26.80;;;;;;2238110;62;20586;-62
2022/09/22 11:19:57;0.00;0.00;0.62;0.00;0.00;0.62;1.53;0.87;;;27.20;26.80;;;;;;2238262;62;20464;-61
2022/09/22 11:23:15;0.00;0.00;0.62;0.00;0.00;0.62;1.60;0.90;;;27.20;26.80;;;;;;2238322;62;20419;-60